Terminal Aerodrome Forecast
Issued by NWS Chicago, IL

Current Version | Previous Version | Text Only | Print | Product List | Glossary On
Versions: 1 2 3 4 5 6 7 8 9 10 11 12 13 14 15 16 17 18 19 20 21 22 23 24 25 26 27 28 29 30 31 32
000
FTUS43 KLOT 311900 AAA
TAFRFD
TAF AMD
KRFD 311958Z 3120/0118 01020G31KT P6SM BKN040
     FM312300 01017G25KT P6SM BKN040
     FM010100 36011G17KT P6SM SCT040
     FM010500 35008KT P6SM FEW040=

USA.gov is the U.S. government's official web portal to all federal, state and local government web resources and services.